Time;durP1;ratioP1;P1;durP2;ratioP2;P2;SDS_P1;SDS_P2;PMS_P1;PMS_P2;Temp;Humidity;BMP_temperature;BMP_pressure;BME280_temperature;BME280_humidity;BME280_pressure;Samples;Min_cycle;Max_cycle;Signal;HPM_P1;HPM_P2
2023/04/29 00:01:57;;;;;;;1.17;0.90;;;;;;;;;;4950304;28;20505;-87
2023/04/29 00:04:23;;;;;;;1.30;1.20;;;;;;;;;;4947201;28;20625;-88
2023/04/29 00:06:49;;;;;;;1.08;0.90;;;;;;;;;;4941984;28;20387;-88
2023/04/29 00:09:15;;;;;;;0.80;0.77;;;;;;;;;;4947698;29;20066;-88
2023/04/29 00:11:41;;;;;;;1.10;0.98;;;;;;;;;;4926755;29;20475;-88
2023/04/29 00:14:07;;;;;;;2.30;1.17;;;;;;;;;;4950063;28;20027;-88
2023/04/29 00:16:33;;;;;;;1.02;0.93;;;;;;;;;;4945228;28;20053;-88
2023/04/29 00:18:59;;;;;;;1.75;1.20;;;;;;;;;;4962966;28;20037;-88
2023/04/29 00:21:26;;;;;;;1.02;0.93;;;;;;;;;;4949451;28;20587;-88
2023/04/29 00:23:52;;;;;;;2.08;1.17;;;;;;;;;;4943574;28;20831;-88
2023/04/29 00:26:18;;;;;;;0.80;0.80;;;;;;;;;;4931423;28;20533;-88
2023/04/29 00:28:44;;;;;;;1.15;0.90;;;;;;;;;;4943069;28;20130;-87
2023/04/29 00:31:10;;;;;;;2.22;1.05;;;;;;;;;;4949531;28;20040;-88
2023/04/29 00:33:37;;;;;;;1.08;0.70;;;;;;;;;;4955208;28;20045;-87
2023/04/29 00:36:03;;;;;;;1.08;0.95;;;;;;;;;;4951775;28;20036;-88
2023/04/29 00:38:29;;;;;;;1.27;1.00;;;;;;;;;;4942226;28;20024;-88
2023/04/29 00:40:55;;;;;;;2.20;1.20;;;;;;;;;;4956012;28;20402;-87
2023/04/29 00:43:21;;;;;;;1.13;1.00;;;;;;;;;;4939386;28;20039;-88
2023/04/29 00:45:47;;;;;;;1.10;1.00;;;;;;;;;;4950472;28;20044;-85
2023/04/29 00:48:16;;;;;;;1.27;1.00;;;;;;;;;;4948895;28;20078;-87
2023/04/29 00:50:42;;;;;;;1.10;0.98;;;;;;;;;;4950501;28;20051;-85
2023/04/29 00:53:14;;;;;;;0.77;0.63;;;;;;;;;;4937280;29;20039;-87
2023/04/29 00:55:41;;;;;;;1.23;1.08;;;;;;;;;;4949298;28;20035;-87
2023/04/29 00:58:09;;;;;;;1.15;0.80;;;;;;;;;;4958475;28;20023;-86
2023/04/29 01:00:35;;;;;;;1.15;1.00;;;;;;;;;;4956482;28;20023;-89
2023/04/29 01:03:02;;;;;;;1.23;1.10;;;;;;;;;;4961413;28;20051;-88
2023/04/29 01:05:28;;;;;;;1.17;0.93;;;;;;;;;;4967182;28;20050;-89
2023/04/29 01:07:58;;;;;;;1.70;1.20;;;;;;;;;;4966911;28;20039;-87
2023/04/29 01:10:28;;;;;;;0.95;0.88;;;;;;;;;;4958674;28;20421;-88
2023/04/29 01:13:02;;;;;;;1.17;1.08;;;;;;;;;;4964623;28;20039;-88
2023/04/29 01:15:28;;;;;;;1.20;1.00;;;;;;;;;;4965753;28;20096;-88
2023/04/29 01:18:03;;;;;;;1.35;0.88;;;;;;;;;;4967248;28;20078;-87
2023/04/29 01:20:30;;;;;;;1.23;1.13;;;;;;;;;;4973686;28;20031;-89
2023/04/29 01:22:56;;;;;;;2.33;1.27;;;;;;;;;;4969482;28;20023;-88
2023/04/29 01:25:22;;;;;;;1.10;1.00;;;;;;;;;;4963804;28;20033;-88
2023/04/29 01:28:02;;;;;;;2.15;0.98;;;;;;;;;;4972942;28;20039;-89
2023/04/29 01:30:40;;;;;;;1.75;1.30;;;;;;;;;;4956550;28;20046;-88
2023/04/29 01:33:14;;;;;;;1.58;1.10;;;;;;;;;;4938326;29;20034;-89
2023/04/29 01:35:59;;;;;;;1.77;0.90;;;;;;;;;;4962361;28;20042;-89
2023/04/29 01:38:41;;;;;;;1.13;1.05;;;;;;;;;;4954079;29;20036;-88
2023/04/29 01:41:14;;;;;;;0.85;0.85;;;;;;;;;;4943466;28;20018;-89
2023/04/29 01:43:40;;;;;;;2.17;1.13;;;;;;;;;;4959661;28;20494;-90
2023/04/29 01:46:08;;;;;;;1.23;0.85;;;;;;;;;;4950625;28;20034;-88
2023/04/29 01:48:39;;;;;;;1.17;0.93;;;;;;;;;;4941343;29;20032;-90
2023/04/29 01:51:06;;;;;;;1.35;1.10;;;;;;;;;;4951529;29;20118;-89
2023/04/29 01:53:34;;;;;;;1.17;0.90;;;;;;;;;;4961951;28;20039;-89
2023/04/29 01:56:00;;;;;;;1.05;0.90;;;;;;;;;;4951259;28;20031;-87
2023/04/29 01:58:27;;;;;;;0.82;0.75;;;;;;;;;;4949771;28;20493;-89
2023/04/29 02:00:53;;;;;;;2.45;1.40;;;;;;;;;;4948571;28;20023;-85
2023/04/29 02:03:19;;;;;;;1.45;1.20;;;;;;;;;;4940424;29;20027;-87
2023/04/29 02:05:45;;;;;;;2.00;1.10;;;;;;;;;;4949596;28;20498;-86
2023/04/29 02:08:11;;;;;;;1.05;0.77;;;;;;;;;;4952005;28;20055;-88
2023/04/29 02:10:37;;;;;;;1.40;1.08;;;;;;;;;;4954093;28;20035;-87
2023/04/29 02:13:03;;;;;;;2.25;1.00;;;;;;;;;;4946616;28;20074;-88
2023/04/29 02:15:29;;;;;;;0.98;0.88;;;;;;;;;;4948089;28;20545;-87
2023/04/29 02:17:55;;;;;;;1.30;1.10;;;;;;;;;;4947594;28;20031;-88
2023/04/29 02:20:21;;;;;;;1.10;0.93;;;;;;;;;;4959492;28;20407;-89
2023/04/29 02:22:47;;;;;;;1.70;1.20;;;;;;;;;;4950027;28;20382;-87
2023/04/29 02:25:13;;;;;;;1.75;1.08;;;;;;;;;;4958892;28;20042;-89
2023/04/29 02:27:39;;;;;;;1.02;0.93;;;;;;;;;;4934033;28;20311;-88
2023/04/29 02:30:06;;;;;;;2.50;1.15;;;;;;;;;;4947261;28;20027;-89
2023/04/29 02:32:32;;;;;;;2.20;1.15;;;;;;;;;;4960603;28;20035;-89
2023/04/29 02:35:01;;;;;;;1.35;1.05;;;;;;;;;;4951355;28;20023;-89
2023/04/29 02:37:27;;;;;;;1.00;0.90;;;;;;;;;;4943895;28;20051;-88
2023/04/29 02:39:53;;;;;;;0.90;0.82;;;;;;;;;;4955741;28;20367;-89
2023/04/29 02:42:19;;;;;;;1.10;1.00;;;;;;;;;;4950765;28;20030;-89
2023/04/29 02:44:45;;;;;;;1.10;1.00;;;;;;;;;;4951027;29;20031;-89
2023/04/29 02:47:11;;;;;;;1.00;0.90;;;;;;;;;;4928664;28;20032;-90
2023/04/29 02:49:37;;;;;;;1.67;0.90;;;;;;;;;;4957650;28;20116;-89
2023/04/29 02:52:03;;;;;;;1.45;1.13;;;;;;;;;;4954878;28;20254;-89
2023/04/29 02:54:30;;;;;;;1.42;1.10;;;;;;;;;;4940818;29;20062;-90
2023/04/29 02:56:57;;;;;;;1.20;1.10;;;;;;;;;;4950678;28;20066;-90
2023/04/29 02:59:23;;;;;;;1.15;1.05;;;;;;;;;;4949041;28;20455;-89
2023/04/29 03:01:57;;;;;;;1.08;0.98;;;;;;;;;;4955464;28;20592;-89
2023/04/29 03:04:27;;;;;;;0.90;0.88;;;;;;;;;;4943160;28;20024;-90
2023/04/29 03:06:55;;;;;;;1.67;0.90;;;;;;;;;;4943717;28;20024;-86
2023/04/29 03:09:21;;;;;;;1.25;1.02;;;;;;;;;;4937054;28;20205;-86
2023/04/29 03:11:47;;;;;;;0.88;0.85;;;;;;;;;;4946604;28;20034;-86
2023/04/29 03:14:13;;;;;;;1.13;1.02;;;;;;;;;;4933341;28;20027;-88
2023/04/29 03:16:48;;;;;;;1.08;1.00;;;;;;;;;;4953304;28;20053;-87
2023/04/29 03:19:15;;;;;;;1.38;1.02;;;;;;;;;;4948417;28;20034;-87
2023/04/29 03:21:41;;;;;;;0.68;0.63;;;;;;;;;;4943731;28;20131;-89
2023/04/29 03:24:07;;;;;;;1.15;1.05;;;;;;;;;;4951327;28;20078;-89
2023/04/29 03:26:33;;;;;;;1.27;1.10;;;;;;;;;;4965114;28;20487;-88
2023/04/29 03:28:59;;;;;;;3.10;0.95;;;;;;;;;;4948596;28;20031;-89
2023/04/29 03:31:26;;;;;;;1.73;1.20;;;;;;;;;;4947367;28;20035;-88
2023/04/29 03:33:52;;;;;;;1.90;1.15;;;;;;;;;;4947011;29;20028;-88
2023/04/29 03:36:18;;;;;;;1.63;1.33;;;;;;;;;;4951489;28;20038;-87
2023/04/29 03:38:44;;;;;;;1.25;1.15;;;;;;;;;;4948970;28;20549;-86
2023/04/29 03:41:10;;;;;;;1.58;1.10;;;;;;;;;;4942700;28;20023;-79
2023/04/29 03:43:36;;;;;;;1.27;1.10;;;;;;;;;;4951393;28;20031;-90
2023/04/29 03:46:02;;;;;;;1.55;0.95;;;;;;;;;;4959046;28;20027;-90
2023/04/29 03:48:28;;;;;;;1.42;1.08;;;;;;;;;;4950224;28;20028;-91
2023/04/29 03:50:54;;;;;;;2.53;1.35;;;;;;;;;;4952516;28;20027;-91
2023/04/29 03:53:20;;;;;;;1.95;1.30;;;;;;;;;;4954967;28;20023;-90
2023/04/29 03:55:47;;;;;;;1.52;0.98;;;;;;;;;;4954764;28;20031;-90
2023/04/29 03:58:13;;;;;;;1.15;1.05;;;;;;;;;;4951390;28;20023;-90
2023/04/29 04:00:39;;;;;;;1.38;1.10;;;;;;;;;;4951626;29;20027;-91
2023/04/29 04:03:05;;;;;;;1.13;1.00;;;;;;;;;;4949415;29;20063;-89
2023/04/29 04:05:31;;;;;;;1.10;0.95;;;;;;;;;;4949645;28;20668;-87
2023/04/29 04:07:59;;;;;;;1.50;1.10;;;;;;;;;;4944118;28;20458;-86
2023/04/29 04:10:25;;;;;;;1.67;1.00;;;;;;;;;;4956352;28;20035;-87
2023/04/29 04:12:51;;;;;;;1.40;1.15;;;;;;;;;;4928080;29;20106;-89
2023/04/29 04:15:17;;;;;;;1.67;1.08;;;;;;;;;;4947775;28;20070;-87
2023/04/29 04:17:43;;;;;;;2.78;1.08;;;;;;;;;;4941856;28;20023;-77
2023/04/29 04:20:09;;;;;;;1.30;1.20;;;;;;;;;;4944584;28;20418;-77
2023/04/29 04:22:35;;;;;;;2.45;1.23;;;;;;;;;;4950360;28;20030;-85
2023/04/29 04:25:01;;;;;;;1.88;1.10;;;;;;;;;;4949920;28;20031;-81
2023/04/29 04:27:27;;;;;;;2.00;1.30;;;;;;;;;;4942292;28;20384;-81
2023/04/29 04:29:53;;;;;;;1.23;1.13;;;;;;;;;;4946415;28;20039;-79
2023/04/29 04:32:20;;;;;;;2.78;1.67;;;;;;;;;;4942805;28;20037;-78
2023/04/29 04:34:58;;;;;;;2.45;1.40;;;;;;;;;;4939197;28;20059;-78
2023/04/29 04:37:24;;;;;;;1.52;0.93;;;;;;;;;;4948744;28;20098;-79
2023/04/29 04:39:50;;;;;;;2.70;1.27;;;;;;;;;;4948031;28;20035;-78
2023/04/29 04:42:16;;;;;;;1.60;1.20;;;;;;;;;;4948736;28;20039;-78
2023/04/29 04:44:42;;;;;;;1.85;1.10;;;;;;;;;;4948234;28;20031;-78
2023/04/29 04:47:10;;;;;;;1.20;1.10;;;;;;;;;;4949331;28;20226;-78
2023/04/29 04:49:36;;;;;;;1.30;1.17;;;;;;;;;;4948438;28;20164;-78
2023/04/29 04:52:02;;;;;;;1.95;1.27;;;;;;;;;;4946179;28;20038;-78
2023/04/29 04:54:28;;;;;;;1.13;1.00;;;;;;;;;;4945663;28;20028;-78
2023/04/29 04:56:54;;;;;;;3.55;1.90;;;;;;;;;;4945065;28;20039;-78
2023/04/29 04:59:20;;;;;;;1.48;1.20;;;;;;;;;;4941552;28;20035;-78
2023/04/29 05:01:46;;;;;;;1.38;1.27;;;;;;;;;;4948551;28;20030;-77
2023/04/29 05:04:12;;;;;;;1.15;1.00;;;;;;;;;;4942502;28;20019;-77
2023/04/29 05:06:38;;;;;;;1.83;1.20;;;;;;;;;;4940673;28;20106;-77
2023/04/29 05:09:05;;;;;;;1.77;1.30;;;;;;;;;;4946363;28;20051;-77
2023/04/29 05:11:31;;;;;;;2.08;1.30;;;;;;;;;;4949364;28;20139;-78
2023/04/29 05:13:57;;;;;;;2.40;1.40;;;;;;;;;;4946495;28;20031;-78
2023/04/29 05:16:23;;;;;;;1.73;1.35;;;;;;;;;;4946247;28;20066;-78
2023/04/29 05:18:49;;;;;;;1.23;1.02;;;;;;;;;;4947464;28;20028;-78
2023/04/29 05:21:15;;;;;;;1.63;1.40;;;;;;;;;;4944788;28;20046;-78
2023/04/29 05:23:47;;;;;;;1.27;1.08;;;;;;;;;;4928818;29;20027;-78
2023/04/29 05:26:13;;;;;;;1.42;1.33;;;;;;;;;;4928954;28;20024;-78
2023/04/29 05:28:39;;;;;;;1.20;1.10;;;;;;;;;;4949210;28;20050;-78
2023/04/29 05:31:05;;;;;;;2.40;1.40;;;;;;;;;;4938388;28;20538;-78
2023/04/29 05:33:31;;;;;;;1.77;1.10;;;;;;;;;;4930800;29;20545;-78
2023/04/29 05:35:57;;;;;;;1.95;1.08;;;;;;;;;;4928337;28;20024;-78
2023/04/29 05:38:27;;;;;;;2.08;1.05;;;;;;;;;;4944626;28;20035;-79
2023/04/29 05:40:53;;;;;;;1.60;1.35;;;;;;;;;;4945136;28;20043;-78
2023/04/29 05:43:19;;;;;;;2.13;1.17;;;;;;;;;;4947972;28;20093;-78
2023/04/29 05:45:55;;;;;;;1.98;1.30;;;;;;;;;;4947936;28;20043;-78
2023/04/29 05:48:21;;;;;;;2.20;1.27;;;;;;;;;;4924913;29;20028;-78
2023/04/29 05:50:47;;;;;;;1.75;1.17;;;;;;;;;;4944470;28;20114;-78
2023/04/29 05:53:13;;;;;;;1.35;1.10;;;;;;;;;;4944422;28;20051;-77
2023/04/29 05:55:43;;;;;;;1.67;1.42;;;;;;;;;;4946524;28;20234;-78
2023/04/29 05:58:09;;;;;;;0.88;0.85;;;;;;;;;;4948016;28;20473;-78
2023/04/29 06:00:35;;;;;;;1.23;1.10;;;;;;;;;;4949066;28;20401;-78
2023/04/29 06:03:01;;;;;;;1.35;1.08;;;;;;;;;;4947773;28;20054;-77
2023/04/29 06:05:27;;;;;;;1.83;1.30;;;;;;;;;;4940277;28;20048;-77
2023/04/29 06:07:53;;;;;;;2.22;1.50;;;;;;;;;;4941417;28;20027;-78
2023/04/29 06:10:19;;;;;;;1.75;1.35;;;;;;;;;;4948004;28;20027;-78
2023/04/29 06:12:46;;;;;;;1.50;1.30;;;;;;;;;;4946663;28;20086;-77
2023/04/29 06:15:12;;;;;;;1.75;1.33;;;;;;;;;;4949123;28;20747;-77
2023/04/29 06:17:38;;;;;;;1.58;1.08;;;;;;;;;;4952906;28;20479;-77
2023/04/29 06:20:04;;;;;;;2.78;1.58;;;;;;;;;;4949261;28;20087;-77
2023/04/29 06:22:30;;;;;;;2.58;1.58;;;;;;;;;;4952306;28;20057;-78
2023/04/29 06:24:56;;;;;;;2.83;1.52;;;;;;;;;;4948885;28;20031;-78
2023/04/29 06:27:22;;;;;;;1.58;1.13;;;;;;;;;;4948513;28;20629;-78
2023/04/29 06:29:48;;;;;;;1.45;0.98;;;;;;;;;;4946060;28;20038;-77
2023/04/29 06:32:14;;;;;;;2.17;1.20;;;;;;;;;;4944555;28;20059;-77
2023/04/29 06:34:40;;;;;;;1.50;1.10;;;;;;;;;;4950809;28;20039;-77
2023/04/29 06:37:06;;;;;;;1.90;1.27;;;;;;;;;;4943234;28;20337;-77
2023/04/29 06:39:32;;;;;;;1.48;1.00;;;;;;;;;;4946435;28;20090;-77
2023/04/29 06:41:58;;;;;;;2.28;1.00;;;;;;;;;;4950108;28;20114;-78
2023/04/29 06:44:24;;;;;;;1.35;1.23;;;;;;;;;;4951566;28;20033;-78
2023/04/29 06:46:50;;;;;;;1.13;1.00;;;;;;;;;;4951499;28;20040;-77
2023/04/29 06:49:17;;;;;;;1.50;1.20;;;;;;;;;;4949581;28;20050;-77
2023/04/29 06:51:43;;;;;;;1.95;1.20;;;;;;;;;;4950880;28;20050;-77
2023/04/29 06:54:09;;;;;;;1.70;1.13;;;;;;;;;;4949179;28;20050;-78
2023/04/29 06:56:35;;;;;;;1.25;0.90;;;;;;;;;;4947796;28;20031;-78
2023/04/29 06:59:01;;;;;;;1.20;0.90;;;;;;;;;;4941106;28;20031;-75
2023/04/29 07:01:27;;;;;;;1.75;1.10;;;;;;;;;;4936622;29;20042;-82
2023/04/29 07:03:53;;;;;;;2.22;1.10;;;;;;;;;;4946953;28;20028;-82
2023/04/29 07:06:18;;;;;;;2.00;1.33;;;;;;;;;;4948399;28;20062;-82
2023/04/29 07:08:44;;;;;;;1.17;0.93;;;;;;;;;;4945566;28;20190;-81
2023/04/29 07:11:10;;;;;;;1.38;1.27;;;;;;;;;;4944644;28;20051;-84
2023/04/29 07:13:37;;;;;;;1.52;1.33;;;;;;;;;;4947621;28;20119;-84
2023/04/29 07:16:03;;;;;;;1.58;0.90;;;;;;;;;;4950706;28;20027;-87
2023/04/29 07:18:28;;;;;;;3.17;1.35;;;;;;;;;;4943778;28;20478;-81
2023/04/29 07:20:54;;;;;;;1.50;1.15;;;;;;;;;;4937869;28;20027;-85
2023/04/29 07:23:20;;;;;;;3.15;1.10;;;;;;;;;;4949262;28;20026;-84
2023/04/29 07:25:51;;;;;;;1.70;1.40;;;;;;;;;;4956908;28;20041;-79
2023/04/29 07:28:17;;;;;;;1.20;1.10;;;;;;;;;;4945721;28;20031;-84
2023/04/29 07:30:46;;;;;;;2.08;1.40;;;;;;;;;;4945678;28;20035;-84
2023/04/29 07:33:12;;;;;;;1.63;1.00;;;;;;;;;;4949124;28;20066;-84
2023/04/29 07:35:40;;;;;;;2.30;1.35;;;;;;;;;;4944489;28;20209;-83
2023/04/29 07:38:06;;;;;;;1.00;0.90;;;;;;;;;;4950647;28;20138;-86
2023/04/29 07:40:32;;;;;;;2.60;1.02;;;;;;;;;;4948804;28;20031;-79
2023/04/29 07:43:03;;;;;;;1.30;1.17;;;;;;;;;;4939119;29;20023;-80
2023/04/29 07:45:29;;;;;;;1.50;1.08;;;;;;;;;;4950267;28;20031;-86
2023/04/29 07:48:04;;;;;;;1.88;1.30;;;;;;;;;;4942558;28;20110;-86
2023/04/29 07:50:35;;;;;;;1.80;0.90;;;;;;;;;;4932402;28;20038;-86
2023/04/29 07:53:01;;;;;;;1.10;0.97;;;;;;;;;;4950465;28;20033;-86
2023/04/29 07:55:30;;;;;;;1.35;1.02;;;;;;;;;;4950789;28;20754;-86
2023/04/29 07:57:56;;;;;;;1.25;0.98;;;;;;;;;;4949551;28;20102;-85
2023/04/29 08:00:23;;;;;;;1.23;0.82;;;;;;;;;;4958046;28;20035;-86
2023/04/29 08:02:52;;;;;;;1.60;1.10;;;;;;;;;;4959418;28;20027;-86
2023/04/29 08:05:20;;;;;;;1.42;0.93;;;;;;;;;;4944370;28;20123;-86
2023/04/29 08:08:04;;;;;;;1.27;0.98;;;;;;;;;;4925032;29;20494;-87
2023/04/29 08:10:30;;;;;;;1.05;0.95;;;;;;;;;;4952970;28;20494;-88
2023/04/29 08:12:57;;;;;;;1.13;0.95;;;;;;;;;;4944487;28;20027;-87
2023/04/29 08:15:26;;;;;;;1.25;1.00;;;;;;;;;;4953812;28;20204;-86
2023/04/29 08:17:52;;;;;;;1.00;0.90;;;;;;;;;;4963932;28;20030;-88
2023/04/29 08:20:18;;;;;;;1.30;1.00;;;;;;;;;;4956544;28;20022;-86
2023/04/29 08:22:44;;;;;;;2.17;1.30;;;;;;;;;;4957053;28;20035;-90
2023/04/29 08:25:10;;;;;;;0.90;0.90;;;;;;;;;;4951529;28;20086;-87
2023/04/29 08:27:45;;;;;;;1.50;1.00;;;;;;;;;;4950931;28;20051;-88
2023/04/29 08:30:20;;;;;;;1.17;1.00;;;;;;;;;;4948895;28;20040;-86
2023/04/29 08:32:46;;;;;;;1.77;1.20;;;;;;;;;;4938459;28;20513;-88
2023/04/29 08:36:00;;;;;;;;;;;;;;;;;;;;;
2023/04/29 08:38:34;;;;;;;1.17;0.90;;;;;;;;;;4952847;28;20041;-88
2023/04/29 08:41:01;;;;;;;1.38;1.15;;;;;;;;;;4934204;29;20031;-89
2023/04/29 08:43:27;;;;;;;1.15;1.05;;;;;;;;;;4951762;28;20031;-88
2023/04/29 08:45:53;;;;;;;1.30;1.20;;;;;;;;;;4942844;29;20027;-87
2023/04/29 08:48:19;;;;;;;1.40;1.27;;;;;;;;;;4915821;29;20024;-90
2023/04/29 08:50:45;;;;;;;1.90;1.00;;;;;;;;;;4946837;28;20019;-88
2023/04/29 08:53:13;;;;;;;1.38;1.00;;;;;;;;;;4950438;28;20027;-90
2023/04/29 08:55:42;;;;;;;1.60;1.30;;;;;;;;;;4954011;28;20038;-90
2023/04/29 08:58:09;;;;;;;1.63;1.30;;;;;;;;;;4944522;28;20031;-86
2023/04/29 09:00:35;;;;;;;1.42;1.15;;;;;;;;;;4942183;28;20019;-87
2023/04/29 09:03:10;;;;;;;1.27;1.13;;;;;;;;;;4927697;29;20031;-88
2023/04/29 09:05:36;;;;;;;1.83;0.93;;;;;;;;;;4943088;28;20134;-87
2023/04/29 09:08:04;;;;;;;1.63;1.35;;;;;;;;;;4946680;28;20035;-88
2023/04/29 09:10:30;;;;;;;1.58;1.15;;;;;;;;;;4955824;28;20058;-87
2023/04/29 09:13:00;;;;;;;1.00;0.90;;;;;;;;;;4947532;28;20031;-89
2023/04/29 09:15:26;;;;;;;0.90;0.90;;;;;;;;;;4925643;29;20027;-87
2023/04/29 09:17:52;;;;;;;3.03;1.40;;;;;;;;;;4955392;28;20034;-88
2023/04/29 09:20:21;;;;;;;1.40;1.10;;;;;;;;;;4955297;28;20106;-86
2023/04/29 09:22:47;;;;;;;2.40;0.90;;;;;;;;;;4946349;28;20027;-88
2023/04/29 09:25:14;;;;;;;1.85;1.45;;;;;;;;;;4942977;28;20054;-88
2023/04/29 09:27:40;;;;;;;1.50;1.20;;;;;;;;;;4942538;28;20055;-88
2023/04/29 09:30:06;;;;;;;2.88;1.05;;;;;;;;;;4936248;28;20414;-88
2023/04/29 09:32:32;;;;;;;3.30;1.35;;;;;;;;;;4953045;28;20035;-87
2023/04/29 09:34:58;;;;;;;1.20;1.10;;;;;;;;;;4952886;28;20039;-89
2023/04/29 09:37:26;;;;;;;2.58;1.60;;;;;;;;;;4945949;28;20042;-89
2023/04/29 09:39:52;;;;;;;1.60;1.30;;;;;;;;;;4945089;29;20031;-88
2023/04/29 09:42:18;;;;;;;7.53;1.48;;;;;;;;;;4947961;28;20011;-88
2023/04/29 09:44:44;;;;;;;1.50;1.35;;;;;;;;;;4948748;28;20032;-89
2023/04/29 09:47:12;;;;;;;1.92;1.20;;;;;;;;;;4945036;28;20039;-87
2023/04/29 09:49:40;;;;;;;1.30;1.20;;;;;;;;;;4944905;29;20031;-88
2023/04/29 09:52:08;;;;;;;2.83;1.55;;;;;;;;;;4956688;28;20106;-88
2023/04/29 09:54:37;;;;;;;1.83;1.33;;;;;;;;;;4935969;28;20407;-87
2023/04/29 09:57:07;;;;;;;3.53;1.40;;;;;;;;;;4945528;28;20027;-89
2023/04/29 09:59:37;;;;;;;2.20;1.55;;;;;;;;;;4944866;29;20027;-87
2023/04/29 10:02:08;;;;;;;3.22;1.55;;;;;;;;;;4953069;28;20482;-89
2023/04/29 10:04:35;;;;;;;5.15;1.60;;;;;;;;;;4953140;28;20043;-88
2023/04/29 10:07:01;;;;;;;2.67;1.40;;;;;;;;;;4940736;28;20028;-87
2023/04/29 10:09:27;;;;;;;2.13;1.25;;;;;;;;;;4950387;28;20118;-88
2023/04/29 10:11:53;;;;;;;1.67;1.50;;;;;;;;;;4956996;28;20063;-89
2023/04/29 10:14:20;;;;;;;4.20;2.03;;;;;;;;;;4954071;28;20035;-88
2023/04/29 10:16:47;;;;;;;2.05;1.60;;;;;;;;;;4943587;28;20482;-88
2023/04/29 10:19:28;;;;;;;3.28;1.77;;;;;;;;;;4955509;28;20493;-88
2023/04/29 10:21:58;;;;;;;2.53;1.60;;;;;;;;;;4954429;28;20109;-86
2023/04/29 10:24:25;;;;;;;1.38;1.23;;;;;;;;;;4967418;28;20062;-87
2023/04/29 10:26:53;;;;;;;3.45;1.50;;;;;;;;;;4953783;28;20069;-88
2023/04/29 10:29:24;;;;;;;3.33;1.63;;;;;;;;;;4952948;29;20236;-92
2023/04/29 10:31:59;;;;;;;1.55;1.45;;;;;;;;;;4952861;28;20062;-86
2023/04/29 10:34:32;;;;;;;1.73;1.15;;;;;;;;;;4953003;28;20094;-89
2023/04/29 10:37:01;;;;;;;3.05;1.50;;;;;;;;;;4952409;28;20134;-89
2023/04/29 10:39:38;;;;;;;2.63;1.50;;;;;;;;;;4936511;29;20035;-89
2023/04/29 10:42:46;;;;;;;;;;;;;;;;;;;;;
2023/04/29 10:45:21;;;;;;;1.90;1.60;;;;;;;;;;4861063;29;20048;-88
2023/04/29 10:48:04;;;;;;;2.70;1.67;;;;;;;;;;4921480;28;20442;-90
2023/04/29 10:50:51;;;;;;;2.95;1.58;;;;;;;;;;4944130;28;20039;-90
2023/04/29 10:53:28;;;;;;;2.45;1.73;;;;;;;;;;4956113;28;20027;-89
2023/04/29 10:55:57;;;;;;;3.60;2.10;;;;;;;;;;4949979;28;20031;-91
2023/04/29 10:58:35;;;;;;;2.70;1.60;;;;;;;;;;4955976;29;20395;-91
2023/04/29 11:01:21;;;;;;;1.65;1.40;;;;;;;;;;4948488;28;20111;-92
2023/04/29 11:03:53;;;;;;;1.60;1.38;;;;;;;;;;4969162;28;20034;-94
2023/04/29 11:06:19;;;;;;;2.53;1.67;;;;;;;;;;4968868;28;20561;-91
2023/04/29 11:08:45;;;;;;;2.28;1.85;;;;;;;;;;4968787;28;20042;-89
2023/04/29 11:11:14;;;;;;;2.83;1.67;;;;;;;;;;4957359;28;20026;-90
2023/04/29 11:13:40;;;;;;;1.83;1.52;;;;;;;;;;4957733;28;20074;-89
2023/04/29 11:16:07;;;;;;;2.10;1.63;;;;;;;;;;4955495;28;20497;-86
2023/04/29 11:18:34;;;;;;;2.78;1.88;;;;;;;;;;4950507;28;20031;-87
2023/04/29 11:21:06;;;;;;;3.38;1.52;;;;;;;;;;4947218;28;20053;-87
2023/04/29 11:23:36;;;;;;;2.63;1.50;;;;;;;;;;4943963;28;20067;-88
2023/04/29 11:26:02;;;;;;;2.38;1.77;;;;;;;;;;4949652;28;20054;-86
2023/04/29 11:28:30;;;;;;;2.33;1.67;;;;;;;;;;4926909;29;20036;-86
2023/04/29 11:30:56;;;;;;;5.30;1.80;;;;;;;;;;4949599;28;20732;-88
2023/04/29 11:33:23;;;;;;;2.42;1.73;;;;;;;;;;4949632;28;20395;-86
2023/04/29 11:35:49;;;;;;;3.53;2.00;;;;;;;;;;4951595;28;20027;-89
2023/04/29 11:38:15;;;;;;;2.08;1.63;;;;;;;;;;4943501;28;20050;-87
2023/04/29 11:40:41;;;;;;;4.43;2.40;;;;;;;;;;4943404;28;20110;-88
2023/04/29 11:43:07;;;;;;;3.70;2.35;;;;;;;;;;4945074;28;20031;-90
2023/04/29 11:45:35;;;;;;;2.78;1.80;;;;;;;;;;4952645;29;20038;-89
2023/04/29 11:48:02;;;;;;;2.83;1.88;;;;;;;;;;4943330;28;20023;-90
2023/04/29 11:50:31;;;;;;;2.53;1.98;;;;;;;;;;4947791;28;20030;-88
2023/04/29 11:52:57;;;;;;;3.03;1.95;;;;;;;;;;4951916;28;20094;-78
2023/04/29 11:55:24;;;;;;;3.08;1.83;;;;;;;;;;4949492;28;20032;-82
2023/04/29 11:57:53;;;;;;;2.78;1.85;;;;;;;;;;4939925;28;20035;-82
2023/04/29 12:00:19;;;;;;;4.00;2.47;;;;;;;;;;4952356;28;20031;-91
2023/04/29 12:02:45;;;;;;;3.13;2.10;;;;;;;;;;4946778;28;20386;-88
2023/04/29 12:05:12;;;;;;;2.42;1.92;;;;;;;;;;4950614;28;20078;-77
2023/04/29 12:07:38;;;;;;;3.78;2.40;;;;;;;;;;4946891;28;20668;-78
2023/04/29 12:10:08;;;;;;;4.53;1.92;;;;;;;;;;4948128;28;20110;-78
2023/04/29 12:12:35;;;;;;;3.80;2.08;;;;;;;;;;4946877;28;20024;-77
2023/04/29 12:15:02;;;;;;;3.42;2.03;;;;;;;;;;4948591;28;20119;-78
2023/04/29 12:17:28;;;;;;;3.33;2.33;;;;;;;;;;4947176;28;20464;-83
2023/04/29 12:19:54;;;;;;;2.85;2.00;;;;;;;;;;4949484;28;20086;-80
2023/04/29 12:22:20;;;;;;;2.35;1.80;;;;;;;;;;4953555;28;20236;-79
2023/04/29 12:24:46;;;;;;;2.90;1.63;;;;;;;;;;4951757;28;20023;-79
2023/04/29 12:27:12;;;;;;;2.20;1.50;;;;;;;;;;4948403;28;20052;-79
2023/04/29 12:29:39;;;;;;;3.13;2.10;;;;;;;;;;4946889;28;20410;-79
2023/04/29 12:32:05;;;;;;;2.00;1.70;;;;;;;;;;4949762;28;20077;-78
2023/04/29 12:34:32;;;;;;;3.08;1.85;;;;;;;;;;4940102;28;20039;-79
2023/04/29 12:36:59;;;;;;;3.38;1.77;;;;;;;;;;4949910;28;20030;-79
2023/04/29 12:39:26;;;;;;;3.10;1.77;;;;;;;;;;4942260;28;20027;-79
2023/04/29 12:41:56;;;;;;;3.72;2.20;;;;;;;;;;4949515;28;20110;-78
2023/04/29 12:44:22;;;;;;;2.10;1.70;;;;;;;;;;4934946;29;20501;-78
2023/04/29 12:46:48;;;;;;;2.97;1.80;;;;;;;;;;4949614;28;20031;-79
2023/04/29 12:49:14;;;;;;;4.90;1.58;;;;;;;;;;4937251;28;20114;-78
2023/04/29 12:51:40;;;;;;;3.47;2.00;;;;;;;;;;4947965;28;20031;-79
2023/04/29 12:54:07;;;;;;;2.70;2.00;;;;;;;;;;4947391;28;20031;-78
2023/04/29 12:56:33;;;;;;;1.50;1.38;;;;;;;;;;4949289;28;20035;-78
2023/04/29 12:59:09;;;;;;;2.80;2.35;;;;;;;;;;4944306;28;20089;-79
2023/04/29 13:01:35;;;;;;;2.15;1.83;;;;;;;;;;4939246;28;20074;-79
2023/04/29 13:04:03;;;;;;;2.33;1.92;;;;;;;;;;4944888;28;20023;-79
2023/04/29 13:06:29;;;;;;;2.47;1.50;;;;;;;;;;4948582;28;20055;-79
2023/04/29 13:08:55;;;;;;;5.15;1.33;;;;;;;;;;4943372;28;20062;-79
2023/04/29 13:11:21;;;;;;;1.83;1.50;;;;;;;;;;4948674;28;20062;-79
2023/04/29 13:13:47;;;;;;;1.50;1.40;;;;;;;;;;4949245;28;20438;-79
2023/04/29 13:16:17;;;;;;;2.42;1.80;;;;;;;;;;4948911;28;20039;-79
2023/04/29 13:18:42;;;;;;;2.22;1.35;;;;;;;;;;4947248;28;20106;-79
2023/04/29 13:21:08;;;;;;;2.13;1.45;;;;;;;;;;4948653;28;20034;-78
2023/04/29 13:23:34;;;;;;;2.08;1.60;;;;;;;;;;4946792;28;20039;-78
2023/04/29 13:26:00;;;;;;;2.22;1.55;;;;;;;;;;4948931;28;20557;-79
2023/04/29 13:28:26;;;;;;;1.88;1.50;;;;;;;;;;4942805;28;20046;-79
2023/04/29 13:30:53;;;;;;;1.40;1.17;;;;;;;;;;4938515;28;20035;-80
2023/04/29 13:33:21;;;;;;;2.50;1.75;;;;;;;;;;4937717;28;20038;-85
2023/04/29 13:35:48;;;;;;;1.38;1.23;;;;;;;;;;4943020;28;20082;-89
2023/04/29 13:38:14;;;;;;;1.95;1.42;;;;;;;;;;4940319;28;20023;-86
2023/04/29 13:40:40;;;;;;;4.97;1.55;;;;;;;;;;4950299;28;20689;-86
2023/04/29 13:43:06;;;;;;;1.95;1.45;;;;;;;;;;4949842;28;20028;-86
2023/04/29 13:45:36;;;;;;;1.65;1.52;;;;;;;;;;4930927;28;20036;-87
2023/04/29 13:48:01;;;;;;;2.65;1.40;;;;;;;;;;4946000;28;20027;-81
2023/04/29 13:50:27;;;;;;;1.30;1.02;;;;;;;;;;4941863;28;20031;-74
2023/04/29 13:52:53;;;;;;;1.30;1.15;;;;;;;;;;4941172;28;20059;-85
2023/04/29 13:55:19;;;;;;;2.40;1.50;;;;;;;;;;4941567;28;20063;-86
2023/04/29 13:57:45;;;;;;;2.15;1.60;;;;;;;;;;4940154;28;20031;-84
2023/04/29 14:00:12;;;;;;;3.47;2.10;;;;;;;;;;4932119;29;20030;-87
2023/04/29 14:02:38;;;;;;;1.80;1.40;;;;;;;;;;4937199;28;20411;-85
2023/04/29 14:05:04;;;;;;;3.65;1.80;;;;;;;;;;4932566;28;20411;-86
2023/04/29 14:07:30;;;;;;;1.63;1.17;;;;;;;;;;4920655;28;20027;-86
2023/04/29 14:09:56;;;;;;;7.18;1.80;;;;;;;;;;4935659;29;20038;-84
2023/04/29 14:12:22;;;;;;;1.83;1.33;;;;;;;;;;4948772;28;20544;-85
2023/04/29 14:14:48;;;;;;;3.20;1.67;;;;;;;;;;4939382;28;20031;-85
2023/04/29 14:17:15;;;;;;;2.35;1.70;;;;;;;;;;4945200;28;20067;-85
2023/04/29 14:19:41;;;;;;;2.95;1.73;;;;;;;;;;4932760;28;20109;-84
2023/04/29 14:22:07;;;;;;;5.40;1.80;;;;;;;;;;4939160;28;20075;-85
2023/04/29 14:24:33;;;;;;;1.63;1.30;;;;;;;;;;4948835;28;20023;-85
2023/04/29 14:27:00;;;;;;;1.55;1.45;;;;;;;;;;4947798;28;20042;-85
2023/04/29 14:29:26;;;;;;;2.38;1.60;;;;;;;;;;4928013;29;20541;-85
2023/04/29 14:31:52;;;;;;;1.48;1.20;;;;;;;;;;4929514;29;20036;-84
2023/04/29 14:34:18;;;;;;;6.25;1.70;;;;;;;;;;4939813;28;20028;-84
2023/04/29 14:36:45;;;;;;;3.35;1.70;;;;;;;;;;4935866;29;20114;-85
2023/04/29 14:39:12;;;;;;;2.42;1.48;;;;;;;;;;4948345;28;20051;-85
2023/04/29 14:41:38;;;;;;;1.77;1.30;;;;;;;;;;4932775;29;20027;-84
2023/04/29 14:44:04;;;;;;;4.28;1.48;;;;;;;;;;4944649;28;20039;-78
2023/04/29 14:46:33;;;;;;;3.88;1.90;;;;;;;;;;4946371;28;20252;-72
2023/04/29 14:49:04;;;;;;;4.63;1.55;;;;;;;;;;4947392;28;20023;-77